Etusivu
METAR-TAF:

METAR-TAF

Lentoasemat :

Varadero, Kuuba

Leveyspiiri: 23-08N, Pituuspiiri: 081-17W, korkeus merenpinnasta: 3 m

Tämänhetkinen sää

Tämä raportti tehtiin 26 minuuttia sitten, kello 11.50 UTC
Tuuli 10 kn luoteesta
Lämpötila 22°C
Kosteus 83%
Ilmanpaine 1015 hPa
Näkyvyys: 9000 m
Muutamia pilviä 3000 ft:n korkeudessa

METAR: MUVR 161150Z 32010KT 9000 FEW030 22/19 Q1015

Aika: 07:16 (12:16 UTC)

Sääennuste

Tämä raportti tehtiin 1 tunti ja 16 minuuttia sitten, kello 11.00 UTC
Ennuste voimassa 16. päivästä klo 12 UTC - 17. päivään klo 12 UTC
Tuuli 3 kn eri suunnista
Näkyvyys: 9000 m
Hajanaisia pilviä 2000 ft:n korkeudessa
Tulossa
16. päivästä klo 13 UTC - 16. päivään klo 15 UTC
Tuuli 10 kn pohjoisen/luoteesta
Tulossa
17. päivästä klo 00 UTC - 17. päivään klo 02 UTC
Tuuli 30 kn eri suunnista

TAF: MUVR 161100Z 1612/1712 VRB03KT 9000 SCT020 BECMG 1613/1615 33010KT BECMG 1700/1702 VRB30KT

Säähavainnot ja -ennusteet yli 4000 lentoasemalta (METAR- ja TAF-raportit).

Käytössä olevat sääasemat on merkitty karttaan keltaisilla ja punaisilla pisteillä.

Aseta hiiri pisteen päälle nähdäksesi sääaseman nimen.

Klikkaa sitten nähdäksesi säähavainnot ja -ennusteet.

Kartan vaihtaminen: klikkaa mustalla rastilla varustettuja vihreitä pisteitä, niin voit zoomata sisään; viivalla varustettua vihreää pistettä, niin voit zoomata ulos tai vihreitä nuolia, niin pääset viereisille kartoille.


METAR-TAF: